Breckenridge, TX

8:48 AM CDT on October 23, 2014 (GMT -0500)
Mineral Wells | Change Station
CLOSE
Current Station
Airport
Location: Mineral Wells,
Elevation: 971 ft
Nearby Weather Stations

Elev 971 ft 32.78 °N, 98.06 °W | Updated 55 minutes ago

Partly Cloudy
Partly Cloudy
63 °F
Feels Like 63 °F
N
8
Wind Variable Wind from SE

Today
High -- | Low -- °F
--% Chance of Precip.
Yesterday
High -- | Low -- °F
Precip. -- in
7:45 AM 6:53 PM
Waning Crescent, 0% visible
Pressure 30.09 in
Visibility 8.0 miles
Clouds Mostly Cloudy 7000 ft
Overcast 10000 ft
Dew Point 57 °F
Humidity 81%
Rainfall 0.00 in
Snow Depth Not available.
UV 0 out of 12
Pollen 5.90 out of 12
Air Quality Not available.
Flu Activity Sporadic
METAR KMWL 231253Z AUTO 13007KT 8SM BKN070 OVC100 17/14 A3011 RMK AO2 SLP187 T01720139

More Conditions Fewer Conditions

Pressure 30.09 in
Visibility 8.0 miles
Clouds Mostly Cloudy 7000 ft
Overcast 10000 ft
Dew Point 57 °F
Humidity 81%
Rainfall 0.00 in
Snow Depth Not available.
UV 0 out of 12
Pollen 5.90 out of 12
Air Quality Not available.
Flu Activity Sporadic
METAR KMWL 231253Z AUTO 13007KT 8SM BKN070 OVC100 17/14 A3011 RMK AO2 SLP187 T01720139

More Conditions Fewer Conditions

Nowcast | as of 6:17 am CDT on October 23, 2014

Areas of light rain will continue mainly east of the Interstate 35 corridor this morning. Activity is moving east at 20 mph. Rainfall totals should remain light...generally ranging from a trace to a few hundredths of an inch.

×

10-Day Weather Forecast

Almanac

Astronomy

Oct. 23, 2014 Rise Set
Actual Time 7:45 AM CDT 6:53 PM CDT
Civil Twilight 7:20 AM CDT 7:18 PM CDT
Nautical Twilight 6:51 AM CDT 7:47 PM CDT
Astronomical Twilight 6:23 AM CDT 8:15 PM CDT
Moon 7:28 AM CDT 6:56 PM CDT
Length of Visible Light 11h 57m
Length of Day
11h 07m
Tomorrow will be 1m 52s shorter.
Waning Crescent, 0% of the Moon is Illuminated
Today
Waning Crescent
Oct 23
New
Oct 30
First Quarter
Nov 6
Full
Nov 14
Last Quarter

Today's Extremes

State Highs State Lows

Community

WunderPhotos

Upload Photos

1,764,238 photos uploaded!

Nearby

Snow Depth

Station Depth Elevation
No new snow has been reported.

Earthquake Activity

City Distance Mag. Time & Date
No recent earthquake activity has been reported nearby.
Minimum magnitude displayed is 2.5.

Coastal Water Temperatures

Place Temperature
No Stations Reporting

Nearby Weather Stations